Flight APNVIP2

  • Submitted By: Krzysztof H. Blaszkow
  • Departure Airport: Dublin (EIDW)
  • Arrival Airport: Ireland West Airport Knock (EIKN)
  • Aircraft: BE58 (EJ-IAWH)
  • Flight Time: 01.03.01
  • Date Submitted: 03/04/2017
  • Status: Accepted
Flight Details
Gross Revenue:
(5 load / € 4,000.00 per unit
€ 20,000.00
Fuel Cost:
(45.3592 fuel used @ 0.45 / unit)
€ 20.41

Additional Log Information:

View Log

[17:24] - Carenado BARON B58 GOLD GREEN
[17:24] - Flight APNVIP2 is ready to depart EIDW with a final destination of EIKN.
[17:24] - Parking Brake Applied
[17:24] - Beacon Light ON
[17:24] - Wing Lights ON
[17:24] - Boarding
[17:24] - ADF1 - 284.0
[17:24] - ADF2 - 240.0
[17:24] - NAV1 - 114.90
[17:24] - NAV2 - 110.60
[17:24] - COM1 - 122.80
[17:24] - COM2 - 127.80
[17:24] - Transponder - 2000
[17:29] - Engine 1 Started
[17:29] - Engine 2 Started
[17:31] - Parking Brake Released
[17:31] - Taxiing to Runway
[17:39] - Landing Lights ON 3AGL
[17:39] - Strobe Lights ON 3AGL
[17:43] - Taking Off with 5 passengers on board
[17:43] - Take off at 110kts, with a pitch of 5deg and 401lbs of fuel on board
[17:43] - Wind Heading 283 | Wind Speed 7kts | Temperature 7 deg C
[17:43] - METAR Departure: EIDW 041730Z 29005KT 240V340 9999 BKN008 BKN014 06/05 Q0984 NOSIG

[17:43] - Gear up at 124AGL
[17:44] - Climbing to TOC
[17:48] - AutoPilot Engaged at 6710AGL
[17:51] - Landing Lights OFF 8816AGL
[17:51] - Instrument Lights ON 8842AGL
[17:54] - TOC reached
[17:54] - Cruise started
[18:09] - NAV1 - 117.40
[18:10] - Landing Lights ON 9150AGL
[18:14] - TOD reached
[18:14] - Descending to destination
[18:16] - Landing Shortly
[18:16] - NAV1 - 110.70
[18:19] - Flaps to position 1 at 2165ft and 133kts
[18:19] - Gear down at 1674AGL
[18:20] - AutoPilot Disengaged at 1279AGL
[18:23] - Landed at -251fpm. With 307lbs of fuel onboard and a pitch angle of 6deg.
[18:23] - Wind Heading 275 | Wind Speed 10kts | Temperature 6 deg C
[18:23] - METAR Arrival: EIKN 041800Z 29012KT 9999 FEW020CB SCT032 BKN100 05/04 Q0985 NOSIG

[18:23] - Flaps to position 0
[18:23] - Taxiing to Gate
[18:25] - Landing Lights OFF 3AGL
[18:25] - Taxi Lights ON 3AGL
[18:25] - Strobe Lights OFF 3AGL
[18:26] - Parking Brake Applied
[18:26] - Arrived safely at EIKN. We hope you enjoyed your flight!
[18:26] - Taxi Lights OFF 3AGL
[18:27] - Engine 1 Stopped
[18:27] - Engine 2 Stopped
[18:27] - Carenado BARON B58 GOLD GREEN
[18:27] - MaxSim Rate: 1x
[18:27] - SiouxAcars ver: 1.0.1.2

Route Map